sensor_id;sensor_type;location;lat;lon;timestamp;P1;durP1;ratioP1;P2;durP2;ratioP2
21837;SDS011;11081;45.946;6.140;2023-06-14T00:02:10;7.30;;;4.45;;
21837;SDS011;11081;45.946;6.140;2023-06-14T00:04:38;6.32;;;4.80;;
21837;SDS011;11081;45.946;6.140;2023-06-14T00:07:08;8.07;;;3.80;;
21837;SDS011;11081;45.946;6.140;2023-06-14T00:09:39;8.68;;;5.18;;
21837;SDS011;11081;45.946;6.140;2023-06-14T00:12:07;11.27;;;5.07;;
21837;SDS011;11081;45.946;6.140;2023-06-14T00:14:36;12.57;;;5.18;;
21837;SDS011;11081;45.946;6.140;2023-06-14T00:17:05;8.02;;;4.55;;
21837;SDS011;11081;45.946;6.140;2023-06-14T00:19:34;10.00;;;4.65;;
21837;SDS011;11081;45.946;6.140;2023-06-14T00:22:03;7.70;;;4.95;;
21837;SDS011;11081;45.946;6.140;2023-06-14T00:24:31;7.18;;;4.95;;
21837;SDS011;11081;45.946;6.140;2023-06-14T00:26:59;7.95;;;5.25;;
21837;SDS011;11081;45.946;6.140;2023-06-14T00:29:28;7.55;;;4.65;;
21837;SDS011;11081;45.946;6.140;2023-06-14T00:31:56;6.70;;;4.50;;
21837;SDS011;11081;45.946;6.140;2023-06-14T00:34:27;7.82;;;4.60;;
21837;SDS011;11081;45.946;6.140;2023-06-14T00:36:55;9.98;;;5.03;;
21837;SDS011;11081;45.946;6.140;2023-06-14T00:39:23;7.10;;;4.75;;
21837;SDS011;11081;45.946;6.140;2023-06-14T00:41:51;11.95;;;4.95;;
21837;SDS011;11081;45.946;6.140;2023-06-14T00:44:19;8.27;;;4.80;;
21837;SDS011;11081;45.946;6.140;2023-06-14T00:46:47;6.65;;;4.55;;
21837;SDS011;11081;45.946;6.140;2023-06-14T00:49:16;9.23;;;5.13;;
21837;SDS011;11081;45.946;6.140;2023-06-14T00:51:46;8.18;;;4.90;;
21837;SDS011;11081;45.946;6.140;2023-06-14T00:54:15;7.00;;;5.38;;
21837;SDS011;11081;45.946;6.140;2023-06-14T00:56:43;7.50;;;5.00;;
21837;SDS011;11081;45.946;6.140;2023-06-14T00:59:11;5.63;;;4.68;;
21837;SDS011;11081;45.946;6.140;2023-06-14T01:01:40;5.68;;;4.72;;
21837;SDS011;11081;45.946;6.140;2023-06-14T01:04:08;7.63;;;4.70;;
21837;SDS011;11081;45.946;6.140;2023-06-14T01:06:39;8.70;;;4.90;;
21837;SDS011;11081;45.946;6.140;2023-06-14T01:09:15;6.32;;;5.10;;
21837;SDS011;11081;45.946;6.140;2023-06-14T01:11:56;7.95;;;4.70;;
21837;SDS011;11081;45.946;6.140;2023-06-14T01:14:32;7.05;;;4.68;;
21837;SDS011;11081;45.946;6.140;2023-06-14T01:17:02;8.23;;;5.35;;
21837;SDS011;11081;45.946;6.140;2023-06-14T01:19:32;9.50;;;4.80;;
21837;SDS011;11081;45.946;6.140;2023-06-14T01:22:01;5.22;;;4.43;;
21837;SDS011;11081;45.946;6.140;2023-06-14T01:24:31;7.35;;;5.18;;
21837;SDS011;11081;45.946;6.140;2023-06-14T01:27:01;11.35;;;5.55;;
21837;SDS011;11081;45.946;6.140;2023-06-14T01:29:30;6.90;;;4.78;;
21837;SDS011;11081;45.946;6.140;2023-06-14T01:31:59;7.55;;;4.65;;
21837;SDS011;11081;45.946;6.140;2023-06-14T01:34:30;9.73;;;5.10;;
21837;SDS011;11081;45.946;6.140;2023-06-14T01:36:58;8.65;;;4.72;;
21837;SDS011;11081;45.946;6.140;2023-06-14T01:39:32;9.45;;;5.32;;
21837;SDS011;11081;45.946;6.140;2023-06-14T01:42:01;10.10;;;5.60;;
21837;SDS011;11081;45.946;6.140;2023-06-14T01:44:30;11.07;;;5.05;;
21837;SDS011;11081;45.946;6.140;2023-06-14T01:47:00;5.97;;;5.22;;
21837;SDS011;11081;45.946;6.140;2023-06-14T01:49:28;7.35;;;4.80;;
21837;SDS011;11081;45.946;6.140;2023-06-14T01:51:56;9.77;;;5.97;;
21837;SDS011;11081;45.946;6.140;2023-06-14T01:54:24;6.45;;;5.40;;
21837;SDS011;11081;45.946;6.140;2023-06-14T01:56:55;12.98;;;6.07;;
21837;SDS011;11081;45.946;6.140;2023-06-14T01:59:24;7.30;;;5.00;;
21837;SDS011;11081;45.946;6.140;2023-06-14T02:01:52;7.80;;;5.30;;
21837;SDS011;11081;45.946;6.140;2023-06-14T02:04:20;12.00;;;5.70;;
21837;SDS011;11081;45.946;6.140;2023-06-14T02:06:48;14.45;;;5.43;;
21837;SDS011;11081;45.946;6.140;2023-06-14T02:09:17;7.20;;;5.38;;
21837;SDS011;11081;45.946;6.140;2023-06-14T02:11:45;7.50;;;5.38;;
21837;SDS011;11081;45.946;6.140;2023-06-14T02:14:14;7.05;;;4.90;;
21837;SDS011;11081;45.946;6.140;2023-06-14T02:16:43;6.93;;;5.30;;
21837;SDS011;11081;45.946;6.140;2023-06-14T02:19:15;9.77;;;5.55;;
21837;SDS011;11081;45.946;6.140;2023-06-14T02:21:44;10.32;;;5.43;;
21837;SDS011;11081;45.946;6.140;2023-06-14T02:24:13;17.40;;;5.80;;
21837;SDS011;11081;45.946;6.140;2023-06-14T02:26:41;11.93;;;5.63;;
21837;SDS011;11081;45.946;6.140;2023-06-14T02:29:15;9.30;;;5.85;;
21837;SDS011;11081;45.946;6.140;2023-06-14T02:31:43;12.52;;;6.07;;
21837;SDS011;11081;45.946;6.140;2023-06-14T02:34:13;9.57;;;6.20;;
21837;SDS011;11081;45.946;6.140;2023-06-14T02:36:45;7.82;;;5.57;;
21837;SDS011;11081;45.946;6.140;2023-06-14T02:39:14;12.10;;;6.07;;
21837;SDS011;11081;45.946;6.140;2023-06-14T02:41:42;8.93;;;5.55;;
21837;SDS011;11081;45.946;6.140;2023-06-14T02:44:10;6.93;;;5.28;;
21837;SDS011;11081;45.946;6.140;2023-06-14T02:46:42;7.95;;;5.18;;
21837;SDS011;11081;45.946;6.140;2023-06-14T02:49:11;10.32;;;5.70;;
21837;SDS011;11081;45.946;6.140;2023-06-14T02:51:39;7.70;;;5.15;;
21837;SDS011;11081;45.946;6.140;2023-06-14T02:54:07;9.02;;;5.53;;
21837;SDS011;11081;45.946;6.140;2023-06-14T02:56:37;8.98;;;5.78;;
21837;SDS011;11081;45.946;6.140;2023-06-14T02:59:06;11.65;;;5.35;;
21837;SDS011;11081;45.946;6.140;2023-06-14T03:01:37;7.03;;;5.13;;
21837;SDS011;11081;45.946;6.140;2023-06-14T03:04:11;11.73;;;5.65;;
21837;SDS011;11081;45.946;6.140;2023-06-14T03:06:41;8.93;;;5.25;;
21837;SDS011;11081;45.946;6.140;2023-06-14T03:09:12;8.75;;;5.30;;
21837;SDS011;11081;45.946;6.140;2023-06-14T03:11:40;7.85;;;4.95;;
21837;SDS011;11081;45.946;6.140;2023-06-14T03:14:08;7.60;;;5.07;;
21837;SDS011;11081;45.946;6.140;2023-06-14T03:16:37;10.60;;;5.07;;
21837;SDS011;11081;45.946;6.140;2023-06-14T03:19:11;8.32;;;5.40;;
21837;SDS011;11081;45.946;6.140;2023-06-14T03:21:40;5.70;;;4.65;;
21837;SDS011;11081;45.946;6.140;2023-06-14T03:24:11;8.07;;;5.03;;
21837;SDS011;11081;45.946;6.140;2023-06-14T03:26:40;8.70;;;5.05;;
21837;SDS011;11081;45.946;6.140;2023-06-14T03:29:08;6.32;;;4.88;;
21837;SDS011;11081;45.946;6.140;2023-06-14T03:31:39;7.00;;;4.85;;
21837;SDS011;11081;45.946;6.140;2023-06-14T03:34:25;8.27;;;5.00;;
21837;SDS011;11081;45.946;6.140;2023-06-14T03:36:53;11.18;;;5.10;;
21837;SDS011;11081;45.946;6.140;2023-06-14T03:39:22;7.88;;;4.88;;
21837;SDS011;11081;45.946;6.140;2023-06-14T03:41:50;11.73;;;5.40;;
21837;SDS011;11081;45.946;6.140;2023-06-14T03:44:19;10.48;;;5.00;;
21837;SDS011;11081;45.946;6.140;2023-06-14T03:46:48;6.85;;;4.65;;
21837;SDS011;11081;45.946;6.140;2023-06-14T03:49:16;8.10;;;4.65;;
21837;SDS011;11081;45.946;6.140;2023-06-14T03:51:46;7.28;;;4.57;;
21837;SDS011;11081;45.946;6.140;2023-06-14T03:54:20;8.15;;;5.18;;
21837;SDS011;11081;45.946;6.140;2023-06-14T03:56:52;5.93;;;4.50;;
21837;SDS011;11081;45.946;6.140;2023-06-14T03:59:20;6.28;;;4.53;;
21837;SDS011;11081;45.946;6.140;2023-06-14T04:01:48;6.45;;;4.60;;
21837;SDS011;11081;45.946;6.140;2023-06-14T04:04:17;7.13;;;4.32;;
21837;SDS011;11081;45.946;6.140;2023-06-14T04:06:46;5.75;;;4.43;;
21837;SDS011;11081;45.946;6.140;2023-06-14T04:09:16;5.20;;;4.22;;
21837;SDS011;11081;45.946;6.140;2023-06-14T04:11:45;5.97;;;3.78;;
21837;SDS011;11081;45.946;6.140;2023-06-14T04:14:13;6.28;;;4.72;;
21837;SDS011;11081;45.946;6.140;2023-06-14T04:16:41;8.73;;;5.00;;
21837;SDS011;11081;45.946;6.140;2023-06-14T04:19:09;6.93;;;4.88;;
21837;SDS011;11081;45.946;6.140;2023-06-14T04:21:37;5.57;;;4.45;;
21837;SDS011;11081;45.946;6.140;2023-06-14T04:24:07;7.63;;;4.93;;
21837;SDS011;11081;45.946;6.140;2023-06-14T04:26:41;10.52;;;4.95;;
21837;SDS011;11081;45.946;6.140;2023-06-14T04:29:11;6.68;;;5.10;;
21837;SDS011;11081;45.946;6.140;2023-06-14T04:31:46;7.53;;;5.10;;
21837;SDS011;11081;45.946;6.140;2023-06-14T04:34:16;9.65;;;5.43;;
21837;SDS011;11081;45.946;6.140;2023-06-14T04:36:53;6.95;;;4.97;;
21837;SDS011;11081;45.946;6.140;2023-06-14T04:39:30;8.13;;;5.03;;
21837;SDS011;11081;45.946;6.140;2023-06-14T04:42:00;6.00;;;4.88;;
21837;SDS011;11081;45.946;6.140;2023-06-14T04:44:30;8.30;;;5.28;;
21837;SDS011;11081;45.946;6.140;2023-06-14T04:47:01;7.90;;;5.13;;
21837;SDS011;11081;45.946;6.140;2023-06-14T04:49:29;11.32;;;4.47;;
21837;SDS011;11081;45.946;6.140;2023-06-14T04:51:59;6.55;;;4.30;;
21837;SDS011;11081;45.946;6.140;2023-06-14T04:54:39;10.02;;;4.07;;
21837;SDS011;11081;45.946;6.140;2023-06-14T04:57:11;6.05;;;3.80;;
21837;SDS011;11081;45.946;6.140;2023-06-14T04:59:41;6.15;;;3.95;;
21837;SDS011;11081;45.946;6.140;2023-06-14T05:02:10;6.85;;;3.85;;
21837;SDS011;11081;45.946;6.140;2023-06-14T05:04:39;7.72;;;4.07;;
21837;SDS011;11081;45.946;6.140;2023-06-14T05:07:07;6.55;;;3.45;;
21837;SDS011;11081;45.946;6.140;2023-06-14T05:09:37;8.82;;;3.55;;
21837;SDS011;11081;45.946;6.140;2023-06-14T05:12:06;8.35;;;3.88;;
21837;SDS011;11081;45.946;6.140;2023-06-14T05:14:36;5.50;;;3.67;;
21837;SDS011;11081;45.946;6.140;2023-06-14T05:17:05;7.07;;;3.88;;
21837;SDS011;11081;45.946;6.140;2023-06-14T05:19:33;6.30;;;3.75;;
21837;SDS011;11081;45.946;6.140;2023-06-14T05:22:02;5.65;;;3.65;;
21837;SDS011;11081;45.946;6.140;2023-06-14T05:24:30;6.75;;;3.50;;
21837;SDS011;11081;45.946;6.140;2023-06-14T05:27:00;6.18;;;3.42;;
21837;SDS011;11081;45.946;6.140;2023-06-14T05:29:28;7.32;;;3.50;;
21837;SDS011;11081;45.946;6.140;2023-06-14T05:31:56;3.88;;;3.10;;
21837;SDS011;11081;45.946;6.140;2023-06-14T05:34:24;8.40;;;3.65;;
21837;SDS011;11081;45.946;6.140;2023-06-14T05:36:52;5.63;;;3.70;;
21837;SDS011;11081;45.946;6.140;2023-06-14T05:39:22;7.10;;;3.88;;
21837;SDS011;11081;45.946;6.140;2023-06-14T05:41:50;6.15;;;3.78;;
21837;SDS011;11081;45.946;6.140;2023-06-14T05:44:20;8.02;;;3.83;;
21837;SDS011;11081;45.946;6.140;2023-06-14T05:46:48;6.63;;;3.58;;
21837;SDS011;11081;45.946;6.140;2023-06-14T05:49:16;10.20;;;3.90;;
21837;SDS011;11081;45.946;6.140;2023-06-14T05:51:44;8.55;;;3.75;;
21837;SDS011;11081;45.946;6.140;2023-06-14T05:54:12;4.05;;;3.33;;
21837;SDS011;11081;45.946;6.140;2023-06-14T05:56:39;6.68;;;3.60;;
21837;SDS011;11081;45.946;6.140;2023-06-14T05:59:07;6.07;;;3.92;;
21837;SDS011;11081;45.946;6.140;2023-06-14T06:01:37;6.10;;;3.38;;
21837;SDS011;11081;45.946;6.140;2023-06-14T06:04:06;7.18;;;3.70;;
21837;SDS011;11081;45.946;6.140;2023-06-14T06:06:35;7.50;;;3.22;;
21837;SDS011;11081;45.946;6.140;2023-06-14T06:09:03;4.70;;;3.70;;
21837;SDS011;11081;45.946;6.140;2023-06-14T06:11:31;4.75;;;3.67;;
21837;SDS011;11081;45.946;6.140;2023-06-14T06:14:14;7.55;;;3.55;;
21837;SDS011;11081;45.946;6.140;2023-06-14T06:16:43;7.85;;;4.18;;
21837;SDS011;11081;45.946;6.140;2023-06-14T06:19:12;7.60;;;3.60;;
21837;SDS011;11081;45.946;6.140;2023-06-14T06:21:40;7.18;;;3.55;;
21837;SDS011;11081;45.946;6.140;2023-06-14T06:24:08;8.43;;;3.50;;
21837;SDS011;11081;45.946;6.140;2023-06-14T06:26:36;8.60;;;4.07;;
21837;SDS011;11081;45.946;6.140;2023-06-14T06:29:05;14.05;;;4.65;;
21837;SDS011;11081;45.946;6.140;2023-06-14T06:31:33;10.25;;;4.85;;
21837;SDS011;11081;45.946;6.140;2023-06-14T06:34:03;4.50;;;3.65;;
21837;SDS011;11081;45.946;6.140;2023-06-14T06:36:31;9.05;;;4.53;;
21837;SDS011;11081;45.946;6.140;2023-06-14T06:38:59;8.52;;;4.07;;
21837;SDS011;11081;45.946;6.140;2023-06-14T06:41:27;5.90;;;4.00;;
21837;SDS011;11081;45.946;6.140;2023-06-14T06:43:55;8.80;;;4.15;;
21837;SDS011;11081;45.946;6.140;2023-06-14T06:46:27;6.28;;;3.53;;
21837;SDS011;11081;45.946;6.140;2023-06-14T06:48:55;8.23;;;3.42;;
21837;SDS011;11081;45.946;6.140;2023-06-14T06:51:25;12.63;;;4.35;;
21837;SDS011;11081;45.946;6.140;2023-06-14T06:53:53;5.75;;;3.85;;
21837;SDS011;11081;45.946;6.140;2023-06-14T06:56:21;6.13;;;3.60;;
21837;SDS011;11081;45.946;6.140;2023-06-14T06:58:50;5.95;;;4.15;;
21837;SDS011;11081;45.946;6.140;2023-06-14T07:01:18;10.43;;;3.92;;
21837;SDS011;11081;45.946;6.140;2023-06-14T07:03:47;7.32;;;3.63;;
21837;SDS011;11081;45.946;6.140;2023-06-14T07:06:15;8.93;;;4.07;;
21837;SDS011;11081;45.946;6.140;2023-06-14T07:08:46;8.05;;;3.90;;
21837;SDS011;11081;45.946;6.140;2023-06-14T07:11:14;7.93;;;4.00;;
21837;SDS011;11081;45.946;6.140;2023-06-14T07:13:42;7.90;;;3.88;;
21837;SDS011;11081;45.946;6.140;2023-06-14T07:16:11;8.00;;;3.70;;
21837;SDS011;11081;45.946;6.140;2023-06-14T07:18:40;7.32;;;3.53;;
21837;SDS011;11081;45.946;6.140;2023-06-14T07:21:08;8.48;;;3.53;;
21837;SDS011;11081;45.946;6.140;2023-06-14T07:23:36;6.57;;;3.75;;
21837;SDS011;11081;45.946;6.140;2023-06-14T07:26:05;5.25;;;3.33;;
21837;SDS011;11081;45.946;6.140;2023-06-14T07:28:33;7.55;;;3.80;;
21837;SDS011;11081;45.946;6.140;2023-06-14T07:31:03;5.43;;;3.83;;
21837;SDS011;11081;45.946;6.140;2023-06-14T07:33:31;5.30;;;3.63;;
21837;SDS011;11081;45.946;6.140;2023-06-14T07:35:59;6.07;;;3.58;;
21837;SDS011;11081;45.946;6.140;2023-06-14T07:38:28;5.28;;;3.75;;
21837;SDS011;11081;45.946;6.140;2023-06-14T07:40:56;4.30;;;3.17;;
21837;SDS011;11081;45.946;6.140;2023-06-14T07:43:25;5.82;;;3.63;;
21837;SDS011;11081;45.946;6.140;2023-06-14T07:45:53;7.90;;;3.72;;
21837;SDS011;11081;45.946;6.140;2023-06-14T07:48:33;4.28;;;3.00;;
21837;SDS011;11081;45.946;6.140;2023-06-14T07:51:01;10.48;;;3.70;;
21837;SDS011;11081;45.946;6.140;2023-06-14T07:53:29;9.57;;;3.33;;
21837;SDS011;11081;45.946;6.140;2023-06-14T07:55:57;10.52;;;3.40;;
21837;SDS011;11081;45.946;6.140;2023-06-14T07:58:27;5.03;;;3.30;;
21837;SDS011;11081;45.946;6.140;2023-06-14T08:00:55;7.38;;;3.72;;
21837;SDS011;11081;45.946;6.140;2023-06-14T08:03:23;8.88;;;3.60;;
21837;SDS011;11081;45.946;6.140;2023-06-14T08:05:51;7.85;;;3.80;;
21837;SDS011;11081;45.946;6.140;2023-06-14T08:08:20;6.95;;;3.40;;
21837;SDS011;11081;45.946;6.140;2023-06-14T08:10:47;7.57;;;3.80;;
21837;SDS011;11081;45.946;6.140;2023-06-14T08:13:16;4.90;;;3.20;;
21837;SDS011;11081;45.946;6.140;2023-06-14T08:15:45;9.60;;;3.65;;
21837;SDS011;11081;45.946;6.140;2023-06-14T08:18:13;8.50;;;3.17;;
21837;SDS011;11081;45.946;6.140;2023-06-14T08:20:41;6.28;;;3.72;;
21837;SDS011;11081;45.946;6.140;2023-06-14T08:23:10;9.80;;;3.90;;
21837;SDS011;11081;45.946;6.140;2023-06-14T08:25:38;4.47;;;3.33;;
21837;SDS011;11081;45.946;6.140;2023-06-14T08:28:06;5.38;;;3.42;;
21837;SDS011;11081;45.946;6.140;2023-06-14T08:30:34;10.13;;;3.60;;
21837;SDS011;11081;45.946;6.140;2023-06-14T08:33:03;12.48;;;4.10;;
21837;SDS011;11081;45.946;6.140;2023-06-14T08:35:42;6.53;;;3.40;;
21837;SDS011;11081;45.946;6.140;2023-06-14T08:38:10;8.50;;;4.22;;
21837;SDS011;11081;45.946;6.140;2023-06-14T08:40:38;7.70;;;4.22;;
21837;SDS011;11081;45.946;6.140;2023-06-14T08:43:09;5.07;;;3.70;;
21837;SDS011;11081;45.946;6.140;2023-06-14T08:45:37;5.75;;;3.72;;
21837;SDS011;11081;45.946;6.140;2023-06-14T08:48:07;9.77;;;3.65;;
21837;SDS011;11081;45.946;6.140;2023-06-14T08:50:36;6.88;;;3.58;;
21837;SDS011;11081;45.946;6.140;2023-06-14T08:53:08;7.03;;;4.07;;
21837;SDS011;11081;45.946;6.140;2023-06-14T08:55:46;6.82;;;3.88;;
21837;SDS011;11081;45.946;6.140;2023-06-14T08:58:16;6.32;;;3.80;;
21837;SDS011;11081;45.946;6.140;2023-06-14T09:00:46;11.55;;;4.10;;
21837;SDS011;11081;45.946;6.140;2023-06-14T09:03:15;9.25;;;4.03;;
21837;SDS011;11081;45.946;6.140;2023-06-14T09:05:43;5.80;;;3.97;;
21837;SDS011;11081;45.946;6.140;2023-06-14T09:08:12;7.50;;;4.03;;
21837;SDS011;11081;45.946;6.140;2023-06-14T09:10:40;4.25;;;3.40;;
21837;SDS011;11081;45.946;6.140;2023-06-14T09:13:08;4.45;;;3.38;;
21837;SDS011;11081;45.946;6.140;2023-06-14T09:15:36;6.88;;;3.80;;
21837;SDS011;11081;45.946;6.140;2023-06-14T09:18:04;6.75;;;3.60;;
21837;SDS011;11081;45.946;6.140;2023-06-14T09:20:34;5.68;;;4.00;;
21837;SDS011;11081;45.946;6.140;2023-06-14T09:23:03;6.68;;;3.75;;
21837;SDS011;11081;45.946;6.140;2023-06-14T09:25:38;6.60;;;4.05;;
21837;SDS011;11081;45.946;6.140;2023-06-14T09:28:10;8.13;;;3.78;;
21837;SDS011;11081;45.946;6.140;2023-06-14T09:30:38;7.20;;;4.00;;
21837;SDS011;11081;45.946;6.140;2023-06-14T09:33:06;5.85;;;3.53;;
21837;SDS011;11081;45.946;6.140;2023-06-14T09:35:36;5.25;;;3.67;;
21837;SDS011;11081;45.946;6.140;2023-06-14T09:38:04;6.18;;;3.65;;
21837;SDS011;11081;45.946;6.140;2023-06-14T09:40:34;10.15;;;3.55;;
21837;SDS011;11081;45.946;6.140;2023-06-14T09:43:06;5.38;;;3.42;;
21837;SDS011;11081;45.946;6.140;2023-06-14T09:45:37;6.53;;;3.17;;
21837;SDS011;11081;45.946;6.140;2023-06-14T09:48:07;7.32;;;3.80;;
21837;SDS011;11081;45.946;6.140;2023-06-14T09:50:37;5.97;;;3.42;;
21837;SDS011;11081;45.946;6.140;2023-06-14T09:53:07;5.03;;;3.85;;
21837;SDS011;11081;45.946;6.140;2023-06-14T09:55:39;6.32;;;3.78;;
21837;SDS011;11081;45.946;6.140;2023-06-14T09:58:09;11.35;;;3.80;;
21837;SDS011;11081;45.946;6.140;2023-06-14T10:00:39;7.05;;;3.58;;
21837;SDS011;11081;45.946;6.140;2023-06-14T10:03:11;4.90;;;3.53;;
21837;SDS011;11081;45.946;6.140;2023-06-14T10:05:43;10.02;;;3.45;;
21837;SDS011;11081;45.946;6.140;2023-06-14T10:08:13;9.75;;;3.70;;
21837;SDS011;11081;45.946;6.140;2023-06-14T10:10:43;7.40;;;3.47;;
21837;SDS011;11081;45.946;6.140;2023-06-14T10:13:12;9.15;;;3.25;;
21837;SDS011;11081;45.946;6.140;2023-06-14T10:15:42;8.77;;;4.03;;
21837;SDS011;11081;45.946;6.140;2023-06-14T10:18:19;11.15;;;4.03;;
21837;SDS011;11081;45.946;6.140;2023-06-14T10:21:00;6.60;;;3.50;;
21837;SDS011;11081;45.946;6.140;2023-06-14T10:23:36;6.97;;;3.90;;
21837;SDS011;11081;45.946;6.140;2023-06-14T10:26:06;5.88;;;3.45;;
21837;SDS011;11081;45.946;6.140;2023-06-14T10:28:37;6.72;;;3.42;;
21837;SDS011;11081;45.946;6.140;2023-06-14T10:31:06;11.10;;;4.20;;
21837;SDS011;11081;45.946;6.140;2023-06-14T10:33:36;6.15;;;3.88;;
21837;SDS011;11081;45.946;6.140;2023-06-14T10:36:24;5.63;;;3.63;;
21837;SDS011;11081;45.946;6.140;2023-06-14T10:38:58;4.97;;;3.15;;
21837;SDS011;11081;45.946;6.140;2023-06-14T10:41:27;4.15;;;3.17;;
21837;SDS011;11081;45.946;6.140;2023-06-14T10:47:20;7.75;;;3.45;;
21837;SDS011;11081;45.946;6.140;2023-06-14T10:49:51;5.38;;;3.60;;
21837;SDS011;11081;45.946;6.140;2023-06-14T10:52:23;5.72;;;3.53;;
21837;SDS011;11081;45.946;6.140;2023-06-14T10:55:01;9.85;;;4.00;;
21837;SDS011;11081;45.946;6.140;2023-06-14T10:57:32;5.65;;;3.33;;
21837;SDS011;11081;45.946;6.140;2023-06-14T11:00:05;6.82;;;3.70;;
21837;SDS011;11081;45.946;6.140;2023-06-14T11:05:41;6.70;;;3.63;;
21837;SDS011;11081;45.946;6.140;2023-06-14T11:08:31;5.57;;;3.00;;
21837;SDS011;11081;45.946;6.140;2023-06-14T11:11:21;7.60;;;3.55;;
21837;SDS011;11081;45.946;6.140;2023-06-14T11:13:50;9.05;;;3.63;;
21837;SDS011;11081;45.946;6.140;2023-06-14T11:16:21;8.73;;;3.85;;
21837;SDS011;11081;45.946;6.140;2023-06-14T11:18:54;6.85;;;3.97;;
21837;SDS011;11081;45.946;6.140;2023-06-14T11:21:23;8.18;;;3.83;;
21837;SDS011;11081;45.946;6.140;2023-06-14T11:23:59;7.53;;;3.70;;
21837;SDS011;11081;45.946;6.140;2023-06-14T11:26:27;5.95;;;3.63;;
21837;SDS011;11081;45.946;6.140;2023-06-14T11:28:56;7.70;;;3.88;;
21837;SDS011;11081;45.946;6.140;2023-06-14T11:31:25;7.45;;;3.80;;
21837;SDS011;11081;45.946;6.140;2023-06-14T11:33:54;5.85;;;3.65;;
21837;SDS011;11081;45.946;6.140;2023-06-14T11:36:23;6.35;;;3.45;;
21837;SDS011;11081;45.946;6.140;2023-06-14T11:39:01;11.60;;;3.42;;
21837;SDS011;11081;45.946;6.140;2023-06-14T11:41:32;8.20;;;3.85;;
21837;SDS011;11081;45.946;6.140;2023-06-14T11:44:02;4.88;;;3.28;;
21837;SDS011;11081;45.946;6.140;2023-06-14T11:46:30;5.75;;;3.22;;
21837;SDS011;11081;45.946;6.140;2023-06-14T11:48:58;4.90;;;3.58;;
21837;SDS011;11081;45.946;6.140;2023-06-14T11:51:29;7.50;;;3.63;;
21837;SDS011;11081;45.946;6.140;2023-06-14T11:53:58;6.88;;;3.60;;
21837;SDS011;11081;45.946;6.140;2023-06-14T11:56:28;4.65;;;3.22;;
21837;SDS011;11081;45.946;6.140;2023-06-14T11:58:56;3.75;;;2.83;;
21837;SDS011;11081;45.946;6.140;2023-06-14T12:01:25;6.05;;;3.20;;
21837;SDS011;11081;45.946;6.140;2023-06-14T12:03:53;4.45;;;3.10;;
21837;SDS011;11081;45.946;6.140;2023-06-14T12:06:28;5.72;;;3.10;;
21837;SDS011;11081;45.946;6.140;2023-06-14T12:09:02;6.38;;;3.22;;
21837;SDS011;11081;45.946;6.140;2023-06-14T12:11:34;6.13;;;3.13;;
21837;SDS011;11081;45.946;6.140;2023-06-14T12:14:03;5.20;;;2.72;;
21837;SDS011;11081;45.946;6.140;2023-06-14T12:16:34;5.03;;;2.80;;
21837;SDS011;11081;45.946;6.140;2023-06-14T12:19:09;3.70;;;3.05;;
21837;SDS011;11081;45.946;6.140;2023-06-14T12:21:40;4.75;;;2.95;;
21837;SDS011;11081;45.946;6.140;2023-06-14T12:24:09;5.05;;;3.22;;
21837;SDS011;11081;45.946;6.140;2023-06-14T12:26:41;5.95;;;3.25;;
21837;SDS011;11081;45.946;6.140;2023-06-14T12:29:10;4.32;;;3.13;;
21837;SDS011;11081;45.946;6.140;2023-06-14T12:31:39;7.57;;;3.10;;
21837;SDS011;11081;45.946;6.140;2023-06-14T12:34:07;5.32;;;3.45;;
21837;SDS011;11081;45.946;6.140;2023-06-14T12:36:36;6.13;;;2.97;;
21837;SDS011;11081;45.946;6.140;2023-06-14T12:39:08;5.10;;;3.55;;
21837;SDS011;11081;45.946;6.140;2023-06-14T12:41:36;9.18;;;3.60;;
21837;SDS011;11081;45.946;6.140;2023-06-14T12:44:06;6.63;;;3.70;;
21837;SDS011;11081;45.946;6.140;2023-06-14T12:46:34;6.95;;;3.53;;
21837;SDS011;11081;45.946;6.140;2023-06-14T12:49:03;4.85;;;3.28;;
21837;SDS011;11081;45.946;6.140;2023-06-14T12:51:31;5.13;;;3.40;;
21837;SDS011;11081;45.946;6.140;2023-06-14T12:53:59;7.32;;;3.50;;
21837;SDS011;11081;45.946;6.140;2023-06-14T12:56:27;5.88;;;3.20;;
21837;SDS011;11081;45.946;6.140;2023-06-14T12:58:55;5.05;;;3.47;;
21837;SDS011;11081;45.946;6.140;2023-06-14T13:01:25;6.78;;;3.30;;
21837;SDS011;11081;45.946;6.140;2023-06-14T13:03:53;6.75;;;3.25;;
21837;SDS011;11081;45.946;6.140;2023-06-14T13:06:21;5.88;;;3.80;;
21837;SDS011;11081;45.946;6.140;2023-06-14T13:08:50;4.88;;;3.25;;
21837;SDS011;11081;45.946;6.140;2023-06-14T13:11:21;6.53;;;3.53;;
21837;SDS011;11081;45.946;6.140;2023-06-14T13:13:49;10.18;;;3.50;;
21837;SDS011;11081;45.946;6.140;2023-06-14T13:16:17;4.85;;;3.08;;
21837;SDS011;11081;45.946;6.140;2023-06-14T13:18:47;5.55;;;3.20;;
21837;SDS011;11081;45.946;6.140;2023-06-14T13:21:15;7.07;;;3.58;;
21837;SDS011;11081;45.946;6.140;2023-06-14T13:23:43;4.38;;;3.50;;
21837;SDS011;11081;45.946;6.140;2023-06-14T13:26:11;4.97;;;3.38;;
21837;SDS011;11081;45.946;6.140;2023-06-14T13:28:39;6.45;;;3.05;;
21837;SDS011;11081;45.946;6.140;2023-06-14T13:31:07;8.10;;;3.28;;
21837;SDS011;11081;45.946;6.140;2023-06-14T13:33:35;8.93;;;3.15;;
21837;SDS011;11081;45.946;6.140;2023-06-14T13:36:05;4.75;;;3.28;;
21837;SDS011;11081;45.946;6.140;2023-06-14T13:38:33;5.22;;;3.30;;
21837;SDS011;11081;45.946;6.140;2023-06-14T13:41:01;6.18;;;3.50;;
21837;SDS011;11081;45.946;6.140;2023-06-14T13:43:29;5.63;;;3.45;;
21837;SDS011;11081;45.946;6.140;2023-06-14T13:45:57;5.90;;;3.47;;
21837;SDS011;11081;45.946;6.140;2023-06-14T13:48:25;7.55;;;3.63;;
21837;SDS011;11081;45.946;6.140;2023-06-14T13:50:54;6.38;;;3.42;;
21837;SDS011;11081;45.946;6.140;2023-06-14T13:53:23;8.25;;;3.78;;
21837;SDS011;11081;45.946;6.140;2023-06-14T13:55:51;6.72;;;3.65;;
21837;SDS011;11081;45.946;6.140;2023-06-14T13:58:19;5.72;;;3.30;;
21837;SDS011;11081;45.946;6.140;2023-06-14T14:00:47;7.03;;;3.55;;
21837;SDS011;11081;45.946;6.140;2023-06-14T14:03:15;5.93;;;3.20;;
21837;SDS011;11081;45.946;6.140;2023-06-14T14:05:43;4.80;;;3.40;;
21837;SDS011;11081;45.946;6.140;2023-06-14T14:08:11;9.85;;;3.45;;
21837;SDS011;11081;45.946;6.140;2023-06-14T14:10:41;5.85;;;3.38;;
21837;SDS011;11081;45.946;6.140;2023-06-14T14:13:09;7.90;;;3.20;;
21837;SDS011;11081;45.946;6.140;2023-06-14T14:15:38;6.38;;;3.63;;
21837;SDS011;11081;45.946;6.140;2023-06-14T14:18:07;6.20;;;3.17;;
21837;SDS011;11081;45.946;6.140;2023-06-14T14:20:35;5.63;;;3.42;;
21837;SDS011;11081;45.946;6.140;2023-06-14T14:23:03;5.72;;;3.55;;
21837;SDS011;11081;45.946;6.140;2023-06-14T14:25:31;4.50;;;2.95;;
21837;SDS011;11081;45.946;6.140;2023-06-14T14:28:00;4.88;;;3.53;;
21837;SDS011;11081;45.946;6.140;2023-06-14T14:30:28;8.57;;;3.30;;
21837;SDS011;11081;45.946;6.140;2023-06-14T14:32:56;8.85;;;3.20;;
21837;SDS011;11081;45.946;6.140;2023-06-14T14:35:24;4.68;;;3.25;;
21837;SDS011;11081;45.946;6.140;2023-06-14T14:37:57;7.72;;;3.42;;
21837;SDS011;11081;45.946;6.140;2023-06-14T14:40:25;8.13;;;3.08;;
21837;SDS011;11081;45.946;6.140;2023-06-14T14:42:53;5.47;;;3.55;;
21837;SDS011;11081;45.946;6.140;2023-06-14T14:45:23;4.18;;;3.22;;
21837;SDS011;11081;45.946;6.140;2023-06-14T14:47:51;5.07;;;3.30;;
21837;SDS011;11081;45.946;6.140;2023-06-14T14:50:21;6.30;;;3.83;;
21837;SDS011;11081;45.946;6.140;2023-06-14T14:52:49;12.73;;;4.10;;
21837;SDS011;11081;45.946;6.140;2023-06-14T14:55:17;9.52;;;3.42;;
21837;SDS011;11081;45.946;6.140;2023-06-14T14:57:46;7.15;;;3.55;;
21837;SDS011;11081;45.946;6.140;2023-06-14T15:00:14;7.07;;;3.33;;
21837;SDS011;11081;45.946;6.140;2023-06-14T15:02:45;6.10;;;3.35;;
21837;SDS011;11081;45.946;6.140;2023-06-14T15:05:13;6.72;;;3.50;;
21837;SDS011;11081;45.946;6.140;2023-06-14T15:07:41;7.38;;;3.45;;